Time;durP1;ratioP1;P1;durP2;ratioP2;P2;SDS_P1;SDS_P2;PMS_P1;PMS_P2;Temp;Humidity;BMP_temperature;BMP_pressure;BME280_temperature;BME280_humidity;BME280_pressure;Samples;Min_cycle;Max_cycle;Signal;HPM_P1;HPM_P2
2020/12/08 00:03:01;;;;;;;9.70;8.80;;;5.00;43.30;;;;;;10359292;28;20231;-75
2020/12/08 00:08:05;;;;;;;10.40;9.20;;;5.00;43.30;;;;;;10351341;28;20250;-75
2020/12/08 00:13:08;;;;;;;9.60;8.77;;;5.00;43.20;;;;;;10348816;28;20231;-75
2020/12/08 00:18:10;;;;;;;10.73;9.77;;;5.00;43.00;;;;;;10351523;28;20337;-75
2020/12/08 00:23:13;;;;;;;11.00;9.90;;;5.00;43.20;;;;;;10351025;28;20755;-75
2020/12/08 00:28:16;;;;;;;10.00;9.10;;;4.90;43.30;;;;;;10353272;28;20240;-75
2020/12/08 00:33:18;;;;;;;10.70;9.70;;;5.00;43.50;;;;;;10358420;28;20326;-75
2020/12/08 00:38:20;;;;;;;11.77;10.67;;;5.00;43.40;;;;;;10355838;28;20237;-75
2020/12/08 00:43:23;;;;;;;11.90;10.80;;;4.90;43.50;;;;;;10370743;28;20317;-75
2020/12/08 00:48:26;;;;;;;12.10;11.00;;;4.90;43.60;;;;;;10358365;28;20237;-75
2020/12/08 00:53:28;;;;;;;11.83;10.67;;;4.90;43.70;;;;;;10351197;28;20305;-75
2020/12/08 00:58:31;;;;;;;10.43;9.43;;;4.90;43.70;;;;;;10354412;28;20226;-75
2020/12/08 01:03:34;;;;;;;13.40;12.10;;;4.90;43.90;;;;;;10363012;28;20241;-75
2020/12/08 01:08:36;;;;;;;13.53;12.13;;;5.00;44.00;;;;;;10359907;28;20306;-75
2020/12/08 01:13:40;;;;;;;10.30;9.33;;;5.00;44.00;;;;;;10346853;28;20231;-75
2020/12/08 01:18:42;;;;;;;12.83;11.53;;;5.00;43.80;;;;;;10368431;28;20227;-75
2020/12/08 01:23:45;;;;;;;13.07;11.77;;;5.10;43.90;;;;;;10353388;28;20303;-75
2020/12/08 01:28:49;;;;;;;10.63;9.60;;;5.10;43.80;;;;;;10358846;28;20313;-75
2020/12/08 01:33:51;;;;;;;12.03;10.83;;;5.10;43.90;;;;;;10345870;28;20226;-75
2020/12/08 01:38:53;;;;;;;11.20;10.10;;;5.10;43.80;;;;;;10344934;28;20230;-75
2020/12/08 01:43:57;;;;;;;14.07;11.50;;;5.10;43.80;;;;;;10351725;28;20238;-75
2020/12/08 01:48:59;;;;;;;11.37;10.27;;;5.00;43.80;;;;;;10342293;28;20252;-75
2020/12/08 01:54:01;;;;;;;11.87;10.67;;;5.00;43.90;;;;;;10367643;28;20250;-76
2020/12/08 01:59:05;;;;;;;12.20;11.00;;;5.00;44.00;;;;;;10350529;28;20619;-75
2020/12/08 02:04:07;;;;;;;12.37;11.07;;;5.10;44.10;;;;;;10357592;28;20602;-75
2020/12/08 02:09:09;;;;;;;11.70;10.60;;;5.00;44.00;;;;;;10348698;28;20288;-76
2020/12/08 02:14:12;;;;;;;12.10;10.90;;;5.10;44.20;;;;;;10340057;28;20234;-75
2020/12/08 02:19:14;;;;;;;13.03;11.73;;;5.10;44.20;;;;;;10360725;28;20233;-76
2020/12/08 02:24:18;;;;;;;12.77;11.43;;;5.20;44.20;;;;;;10358339;28;20246;-75
2020/12/08 02:29:21;;;;;;;12.53;11.27;;;5.10;44.10;;;;;;10365722;28;20349;-76
2020/12/08 02:34:23;;;;;;;13.17;11.13;;;5.20;44.20;;;;;;10378739;28;20309;-75
2020/12/08 02:39:27;;;;;;;11.77;10.57;;;5.20;44.20;;;;;;10354412;28;20285;-76
2020/12/08 02:44:29;;;;;;;12.13;10.93;;;5.20;44.30;;;;;;10347825;28;20254;-75
2020/12/08 02:49:31;;;;;;;13.83;12.33;;;5.20;44.30;;;;;;10362681;28;20699;-75
2020/12/08 02:54:34;;;;;;;13.80;12.17;;;5.30;44.40;;;;;;10369507;28;20787;-75
2020/12/08 02:59:40;;;;;;;12.90;11.17;;;5.30;44.50;;;;;;10355972;28;20230;-76
2020/12/08 03:04:42;;;;;;;15.87;14.00;;;5.30;44.50;;;;;;10365891;28;20310;-75
2020/12/08 03:09:45;;;;;;;16.43;14.33;;;5.30;44.50;;;;;;10354487;28;20235;-75
2020/12/08 03:14:48;;;;;;;16.43;14.67;;;5.30;44.50;;;;;;10360250;28;20251;-76
2020/12/08 03:19:50;;;;;;;17.30;15.33;;;5.40;45.30;;;;;;10356120;28;20248;-75
2020/12/08 03:24:53;;;;;;;19.10;15.97;;;5.40;44.60;;;;;;10370525;28;20278;-76
2020/12/08 03:29:55;;;;;;;18.70;16.40;;;5.40;44.50;;;;;;10366337;28;20309;-76
2020/12/08 03:34:58;;;;;;;19.90;16.60;;;5.40;44.40;;;;;;10361128;28;20223;-76
2020/12/08 03:40:01;;;;;;;18.07;14.93;;;5.30;44.10;;;;;;10370834;28;20293;-76
2020/12/08 03:45:03;;;;;;;16.37;13.83;;;5.20;44.10;;;;;;10378668;28;20241;-76
2020/12/08 03:50:06;;;;;;;17.17;14.37;;;5.20;44.30;;;;;;10367289;28;20254;-75
2020/12/08 03:55:09;;;;;;;18.40;14.97;;;5.10;44.40;;;;;;10362772;28;20232;-75
2020/12/08 04:00:11;;;;;;;19.33;16.03;;;5.10;44.40;;;;;;10371988;28;20461;-75
2020/12/08 04:05:13;;;;;;;19.00;15.47;;;5.20;44.50;;;;;;10364806;28;20262;-75
2020/12/08 04:10:16;;;;;;;22.23;16.43;;;5.10;44.50;;;;;;10354473;28;20321;-75
2020/12/08 04:15:18;;;;;;;22.63;17.70;;;5.20;44.50;;;;;;10373528;28;20227;-75
2020/12/08 04:20:21;;;;;;;15.17;12.73;;;5.10;44.50;;;;;;10363919;28;20235;-75
2020/12/08 04:25:24;;;;;;;20.77;15.73;;;5.10;44.50;;;;;;10356240;28;20759;-76
2020/12/08 04:30:26;;;;;;;21.53;16.60;;;5.10;45.40;;;;;;10354880;28;20318;-76
2020/12/08 04:35:28;;;;;;;23.90;16.90;;;5.10;44.50;;;;;;10354442;28;20291;-76
2020/12/08 04:40:31;;;;;;;18.30;14.47;;;5.10;44.50;;;;;;10366713;28;20265;-76
2020/12/08 04:45:34;;;;;;;20.37;15.73;;;5.10;44.40;;;;;;10372165;28;20237;-76
2020/12/08 04:50:36;;;;;;;20.77;15.77;;;5.10;44.30;;;;;;10361949;28;20227;-76
2020/12/08 04:55:41;;;;;;;17.53;14.50;;;5.00;44.10;;;;;;10348429;28;20223;-75
2020/12/08 05:00:44;;;;;;;17.30;14.40;;;5.00;44.30;;;;;;10360965;28;20306;-75
2020/12/08 05:05:47;;;;;;;18.20;14.87;;;5.00;44.30;;;;;;10379629;28;20321;-76
2020/12/08 05:10:50;;;;;;;20.67;15.93;;;4.90;44.30;;;;;;10357353;28;20310;-76
2020/12/08 05:15:59;;;;;;;24.97;17.33;;;4.90;44.30;;;;;;10363791;28;20231;-75
2020/12/08 05:21:08;;;;;;;18.67;15.33;;;4.90;44.40;;;;;;10350226;28;20238;-75
2020/12/08 05:26:13;;;;;;;17.40;13.47;;;4.80;44.60;;;;;;10352808;28;20642;-76
2020/12/08 05:31:26;;;;;;;19.13;15.57;;;4.80;44.70;;;;;;10364928;28;20223;-76
2020/12/08 05:36:28;;;;;;;16.53;13.87;;;4.80;44.80;;;;;;10358755;28;20310;-76
2020/12/08 05:41:32;;;;;;;18.77;15.57;;;4.90;44.40;;;;;;10344248;28;20313;-76
2020/12/08 05:46:42;;;;;;;17.57;14.90;;;4.80;44.40;;;;;;10331316;28;20293;-76
2020/12/08 05:51:46;;;;;;;16.70;14.27;;;4.80;44.50;;;;;;10341839;28;20246;-76
2020/12/08 05:56:51;;;;;;;17.90;14.37;;;4.70;44.10;;;;;;10346920;28;20230;-76
2020/12/08 06:01:53;;;;;;;16.53;13.63;;;4.70;44.20;;;;;;10348626;28;20234;-76
2020/12/08 06:06:57;;;;;;;17.70;14.57;;;4.60;44.30;;;;;;10357638;28;20226;-76
2020/12/08 06:12:02;;;;;;;15.37;12.93;;;4.60;44.40;;;;;;10351081;28;20697;-76
2020/12/08 06:17:06;;;;;;;16.67;14.30;;;4.60;44.60;;;;;;10360468;28;20218;-76
2020/12/08 06:22:12;;;;;;;15.33;13.67;;;4.50;44.50;;;;;;10350667;28;20231;-76
2020/12/08 06:27:22;;;;;;;15.93;13.53;;;4.50;44.70;;;;;;10349987;28;20250;-76
2020/12/08 06:32:25;;;;;;;16.67;13.37;;;4.50;44.80;;;;;;10366505;28;20273;-76
2020/12/08 06:37:28;;;;;;;16.23;14.00;;;4.50;44.70;;;;;;10358658;28;20221;-76
2020/12/08 06:42:32;;;;;;;14.67;12.33;;;4.60;44.70;;;;;;10354163;28;20233;-76
2020/12/08 06:47:34;;;;;;;17.60;14.13;;;4.60;44.50;;;;;;10354940;28;20371;-76
2020/12/08 06:52:37;;;;;;;15.07;13.30;;;4.60;44.40;;;;;;10349628;28;20942;-77
2020/12/08 06:57:41;;;;;;;14.77;13.23;;;4.60;44.30;;;;;;10336871;28;20253;-76
2020/12/08 07:02:49;;;;;;;14.53;12.83;;;4.60;44.20;;;;;;10366302;28;20573;-76
2020/12/08 07:07:51;;;;;;;13.07;11.27;;;4.50;44.20;;;;;;10368820;28;20305;-76
2020/12/08 07:12:54;;;;;;;13.83;11.83;;;4.50;44.50;;;;;;10361299;28;20578;-76
2020/12/08 07:17:58;;;;;;;12.57;11.07;;;4.40;44.60;;;;;;10361342;28;20253;-76
2020/12/08 07:23:03;;;;;;;14.33;12.83;;;4.50;44.60;;;;;;10356319;28;20242;-75
2020/12/08 07:28:06;;;;;;;12.17;10.90;;;4.50;44.60;;;;;;10353653;28;20355;-76
2020/12/08 07:33:10;;;;;;;14.97;13.37;;;4.60;44.50;;;;;;10358741;28;20261;-76
2020/12/08 07:38:13;;;;;;;14.20;12.70;;;4.60;44.50;;;;;;10346600;28;20245;-76
2020/12/08 07:43:16;;;;;;;13.80;12.30;;;4.50;44.40;;;;;;10354752;28;20633;-78
2020/12/08 07:48:19;;;;;;;12.67;11.37;;;4.60;44.50;;;;;;10370557;28;20241;-76
2020/12/08 07:53:21;;;;;;;12.73;11.10;;;4.50;44.50;;;;;;10379240;28;20234;-78
2020/12/08 07:58:24;;;;;;;13.03;11.63;;;4.60;44.60;;;;;;10379696;28;20697;-78
2020/12/08 08:03:27;;;;;;;15.90;12.73;;;4.60;44.70;;;;;;10378134;28;20257;-78
2020/12/08 08:08:42;;;;;;;14.03;12.53;;;4.60;44.60;;;;;;10355057;28;20258;-77
2020/12/08 08:13:46;;;;;;;14.17;12.30;;;4.70;45.10;;;;;;10346395;28;20585;-77
2020/12/08 08:18:49;;;;;;;13.20;11.93;;;4.70;44.80;;;;;;10360448;28;20270;-77
2020/12/08 08:23:57;;;;;;;13.67;12.27;;;4.80;44.70;;;;;;10351343;28;20711;-77
2020/12/08 08:29:00;;;;;;;14.27;12.70;;;4.80;44.60;;;;;;10353638;28;20230;-78
2020/12/08 08:34:02;;;;;;;13.87;12.47;;;4.80;44.60;;;;;;10364555;28;20313;-78
2020/12/08 08:39:05;;;;;;;11.83;10.60;;;4.80;44.50;;;;;;10358526;28;20225;-78
2020/12/08 08:44:09;;;;;;;11.83;10.73;;;4.80;44.50;;;;;;10355350;28;20305;-78
2020/12/08 08:49:14;;;;;;;12.17;10.90;;;4.90;44.50;;;;;;10358972;28;20764;-78
2020/12/08 08:54:18;;;;;;;10.97;9.90;;;4.80;44.50;;;;;;10348893;28;20417;-78
2020/12/08 08:59:21;;;;;;;10.20;9.27;;;4.80;44.60;;;;;;10350884;28;20311;-78
2020/12/08 09:04:23;;;;;;;11.57;10.47;;;4.90;44.70;;;;;;10343757;28;20313;-78
2020/12/08 09:09:25;;;;;;;11.53;10.33;;;4.90;44.70;;;;;;10343698;28;20243;-78
2020/12/08 09:14:30;;;;;;;11.70;10.53;;;4.90;44.70;;;;;;10336303;28;20227;-79
2020/12/08 09:19:32;;;;;;;11.50;10.40;;;5.00;44.70;;;;;;10337295;28;20226;-78
2020/12/08 09:24:35;;;;;;;10.03;8.97;;;5.00;44.50;;;;;;10348672;28;20222;-78
2020/12/08 09:29:38;;;;;;;12.43;11.23;;;5.00;45.80;;;;;;10356649;28;20261;-78
2020/12/08 09:34:40;;;;;;;10.97;9.90;;;5.10;45.60;;;;;;10352482;28;20314;-79
2020/12/08 09:39:42;;;;;;;10.90;9.90;;;5.10;45.00;;;;;;10341541;28;20318;-80
2020/12/08 09:44:47;;;;;;;10.20;9.30;;;5.20;45.00;;;;;;10346236;28;20261;-79
2020/12/08 09:49:51;;;;;;;11.07;9.97;;;5.20;44.90;;;;;;10338570;28;20258;-77
2020/12/08 09:54:54;;;;;;;10.90;9.90;;;5.30;44.90;;;;;;10339277;28;20695;-76
2020/12/08 09:59:57;;;;;;;11.30;10.30;;;5.30;44.90;;;;;;10331242;28;20219;-77
2020/12/08 10:04:59;;;;;;;11.10;10.10;;;5.40;44.90;;;;;;10340282;28;20369;-77
2020/12/08 10:10:01;;;;;;;11.90;10.70;;;5.40;44.70;;;;;;10335992;28;20234;-77
2020/12/08 10:15:08;;;;;;;11.10;10.00;;;5.40;44.70;;;;;;10325619;28;20238;-76
2020/12/08 10:20:10;;;;;;;11.53;10.37;;;5.50;44.60;;;;;;10329457;28;20277;-77
2020/12/08 10:25:12;;;;;;;12.47;11.27;;;5.50;44.60;;;;;;10342474;28;20242;-78
2020/12/08 10:30:16;;;;;;;12.47;11.27;;;5.50;45.40;;;;;;10333442;28;20235;-77
2020/12/08 10:35:18;;;;;;;13.03;11.70;;;5.50;44.60;;;;;;10346258;28;20289;-77
2020/12/08 10:40:20;;;;;;;14.50;12.93;;;5.60;44.70;;;;;;10327537;28;20341;-77
2020/12/08 10:45:23;;;;;;;15.60;14.00;;;5.60;44.70;;;;;;10355749;28;20310;-76
2020/12/08 10:50:26;;;;;;;14.30;12.90;;;5.60;44.70;;;;;;10350458;28;20245;-77
2020/12/08 10:55:28;;;;;;;13.33;12.03;;;5.60;44.60;;;;;;10358173;28;20239;-77
2020/12/08 11:00:32;;;;;;;12.50;11.30;;;5.70;44.70;;;;;;10351178;28;20249;-77
2020/12/08 11:05:34;;;;;;;12.87;11.60;;;5.70;44.70;;;;;;10360515;28;20317;-76
2020/12/08 11:10:36;;;;;;;12.60;11.33;;;5.70;44.60;;;;;;10351828;28;20317;-78
2020/12/08 11:15:40;;;;;;;13.70;12.40;;;5.70;44.60;;;;;;10362782;28;20790;-79
2020/12/08 11:20:43;;;;;;;13.43;12.10;;;5.80;44.80;;;;;;10357273;28;20249;-78
2020/12/08 11:25:45;;;;;;;14.10;12.70;;;5.80;44.60;;;;;;10362192;28;20226;-78
2020/12/08 11:30:48;;;;;;;15.20;13.60;;;5.80;44.60;;;;;;10365557;28;20243;-76
2020/12/08 11:35:51;;;;;;;15.93;14.33;;;5.80;44.70;;;;;;10370406;22;20858;-70
2020/12/08 11:40:54;;;;;;;15.43;13.87;;;5.80;44.70;;;;;;10317112;28;20620;-70
2020/12/08 11:45:58;;;;;;;15.80;14.20;;;5.80;44.60;;;;;;10310083;28;20226;-72
2020/12/08 11:51:00;;;;;;;13.27;11.87;;;5.80;44.50;;;;;;10317958;28;21002;-73
2020/12/08 11:56:03;;;;;;;14.57;13.07;;;5.80;44.60;;;;;;10319477;28;20234;-72
2020/12/08 12:01:08;;;;;;;14.90;13.40;;;5.90;44.70;;;;;;10315115;28;20285;-72
2020/12/08 12:06:13;;;;;;;15.07;11.93;;;5.80;44.60;;;;;;10315645;28;20227;-72
2020/12/08 12:11:15;;;;;;;16.03;12.97;;;5.90;44.70;;;;;;10316619;28;20327;-73
2020/12/08 12:16:18;;;;;;;13.83;12.47;;;5.90;44.70;;;;;;10317788;28;20242;-73
2020/12/08 12:21:20;;;;;;;12.93;11.63;;;5.90;44.70;;;;;;10308490;28;20303;-73
2020/12/08 12:26:22;;;;;;;13.00;11.63;;;5.90;44.70;;;;;;10318706;28;20237;-73
2020/12/08 12:31:25;;;;;;;13.27;11.97;;;5.90;44.80;;;;;;10314691;28;20235;-73
2020/12/08 12:36:27;;;;;;;12.50;11.20;;;5.90;45.00;;;;;;10311149;28;20288;-73
2020/12/08 12:41:31;;;;;;;12.87;11.57;;;6.00;45.00;;;;;;10319991;28;20465;-73
2020/12/08 12:46:35;;;;;;;12.47;11.17;;;6.00;44.90;;;;;;10321350;28;20619;-73
2020/12/08 12:51:37;;;;;;;13.03;11.40;;;6.00;44.90;;;;;;10320277;28;20761;-73
2020/12/08 12:56:40;;;;;;;13.23;10.77;;;6.00;44.80;;;;;;10314846;28;20230;-74
2020/12/08 13:01:43;;;;;;;12.33;11.03;;;6.10;44.90;;;;;;10323257;28;20231;-73
2020/12/08 13:06:47;;;;;;;11.17;10.13;;;6.10;44.80;;;;;;10313665;28;20235;-73
2020/12/08 13:11:49;;;;;;;10.43;9.43;;;6.10;44.70;;;;;;10316914;28;20234;-73
2020/12/08 13:16:52;;;;;;;12.23;10.33;;;6.10;44.80;;;;;;10314835;28;20258;-73
2020/12/08 13:21:56;;;;;;;11.67;10.57;;;6.10;44.90;;;;;;10314233;28;20223;-73
2020/12/08 13:26:58;;;;;;;10.17;9.27;;;6.10;44.90;;;;;;10314488;28;20310;-73
2020/12/08 13:32:01;;;;;;;10.50;9.50;;;6.10;44.80;;;;;;10302270;28;20222;-74
2020/12/08 13:37:03;;;;;;;9.70;8.80;;;6.10;44.90;;;;;;10287248;28;20227;-73
2020/12/08 13:42:05;;;;;;;10.03;8.27;;;6.10;44.90;;;;;;10297497;28;20216;-73
2020/12/08 13:47:09;;;;;;;7.90;7.20;;;6.10;45.00;;;;;;10295358;28;20228;-73
2020/12/08 13:52:13;;;;;;;7.67;6.97;;;6.10;45.20;;;;;;10293085;28;20230;-73
2020/12/08 13:57:15;;;;;;;10.07;7.07;;;6.10;45.30;;;;;;10285869;28;20231;-74
2020/12/08 14:02:18;;;;;;;7.60;6.87;;;6.20;45.30;;;;;;10293976;28;20241;-73
2020/12/08 14:07:21;;;;;;;7.77;6.87;;;6.20;45.10;;;;;;10283743;28;20310;-73
2020/12/08 14:12:23;;;;;;;7.63;6.93;;;6.20;45.00;;;;;;10292621;28;20227;-73
2020/12/08 14:17:26;;;;;;;7.73;6.93;;;6.30;45.00;;;;;;10283300;28;20624;-73
2020/12/08 14:22:28;;;;;;;7.57;6.73;;;6.30;45.10;;;;;;10285472;28;20735;-73
2020/12/08 14:27:41;;;;;;;8.20;7.37;;;6.30;45.00;;;;;;10296700;28;20251;-73
2020/12/08 14:32:44;;;;;;;7.63;6.83;;;6.30;45.00;;;;;;10301980;28;20227;-73
2020/12/08 14:37:46;;;;;;;8.40;7.30;;;6.30;45.10;;;;;;10286941;28;20224;-73
2020/12/08 14:42:49;;;;;;;7.50;6.10;;;6.30;45.00;;;;;;10287128;28;20640;-73
2020/12/08 14:47:52;;;;;;;7.10;6.50;;;6.40;44.90;;;;;;10295989;28;20226;-73
2020/12/08 14:52:55;;;;;;;7.10;6.40;;;6.40;44.80;;;;;;10307636;28;20221;-73
2020/12/08 14:57:57;;;;;;;6.57;5.97;;;6.40;44.90;;;;;;10300552;28;20226;-73
2020/12/08 15:03:00;;;;;;;6.57;5.97;;;6.40;44.90;;;;;;10298852;28;20320;-73
2020/12/08 15:08:02;;;;;;;7.67;6.87;;;6.50;45.00;;;;;;10306101;28;20291;-73
2020/12/08 15:13:05;;;;;;;8.03;7.23;;;6.50;44.80;;;;;;10304728;28;20222;-73
2020/12/08 15:18:08;;;;;;;7.87;7.17;;;6.50;44.70;;;;;;10303740;28;20219;-73
2020/12/08 15:23:10;;;;;;;7.70;7.00;;;6.50;44.60;;;;;;10295334;28;20699;-74
2020/12/08 15:28:13;;;;;;;6.90;6.20;;;6.50;44.60;;;;;;10291664;28;20527;-73
2020/12/08 15:33:16;;;;;;;5.87;5.27;;;6.50;44.60;;;;;;10294940;28;20236;-73
2020/12/08 15:38:18;;;;;;;6.27;5.43;;;6.50;44.60;;;;;;10300417;28;20224;-73
2020/12/08 15:43:20;;;;;;;6.17;5.33;;;6.60;44.60;;;;;;10302190;28;20231;-73
2020/12/08 15:48:24;;;;;;;6.57;5.83;;;6.60;44.70;;;;;;10295889;28;20235;-73
2020/12/08 15:53:26;;;;;;;7.40;6.10;;;6.60;44.60;;;;;;10302969;28;20767;-73
2020/12/08 15:58:28;;;;;;;6.10;5.50;;;6.60;44.60;;;;;;10293515;28;20310;-73
2020/12/08 16:03:31;;;;;;;5.73;5.00;;;6.60;44.50;;;;;;10293489;28;20235;-73
2020/12/08 16:08:35;;;;;;;5.33;4.47;;;6.70;44.40;;;;;;10292871;28;20235;-73
2020/12/08 16:13:37;;;;;;;5.50;5.00;;;6.70;44.40;;;;;;10302435;28;20239;-73
2020/12/08 16:18:41;;;;;;;5.33;4.83;;;6.70;44.20;;;;;;10298075;28;20226;-73
2020/12/08 16:23:44;;;;;;;5.43;4.90;;;6.70;44.10;;;;;;10298655;28;20649;-73
2020/12/08 16:28:47;;;;;;;4.77;4.30;;;6.70;44.10;;;;;;10293976;28;20701;-73
2020/12/08 16:33:50;;;;;;;5.37;4.63;;;6.70;44.10;;;;;;10285852;28;20319;-73
2020/12/08 16:38:52;;;;;;;4.67;4.27;;;6.70;44.10;;;;;;10279730;28;20224;-73
2020/12/08 16:43:54;;;;;;;6.13;4.27;;;6.80;44.20;;;;;;10283482;28;20230;-73
2020/12/08 16:48:58;;;;;;;4.67;4.23;;;6.80;44.20;;;;;;10282633;28;20584;-73
2020/12/08 16:54:00;;;;;;;5.20;4.60;;;6.80;44.20;;;;;;10287645;28;20596;-74
2020/12/08 16:59:02;;;;;;;5.97;5.37;;;6.80;44.20;;;;;;10287335;28;20224;-73
2020/12/08 17:04:05;;;;;;;5.43;4.93;;;6.80;44.40;;;;;;10286302;28;20729;-73
2020/12/08 17:09:07;;;;;;;4.93;4.43;;;6.70;44.00;;;;;;10290824;28;20251;-73
2020/12/08 17:14:10;;;;;;;5.13;4.63;;;6.80;43.90;;;;;;10283340;28;20228;-74
2020/12/08 17:19:13;;;;;;;6.87;5.57;;;6.80;43.90;;;;;;10282077;28;20239;-73
2020/12/08 17:24:15;;;;;;;5.30;4.57;;;6.80;43.80;;;;;;10292231;28;20233;-73
2020/12/08 17:29:17;;;;;;;5.03;4.53;;;6.80;44.00;;;;;;10284553;28;20231;-73
2020/12/08 17:34:20;;;;;;;5.80;5.20;;;6.80;43.90;;;;;;10286232;28;20227;-73
2020/12/08 17:39:23;;;;;;;5.70;5.10;;;6.80;43.60;;;;;;10286696;28;20228;-73
2020/12/08 17:44:25;;;;;;;5.10;4.60;;;6.80;43.60;;;;;;10292247;28;20231;-74
2020/12/08 17:49:28;;;;;;;7.83;6.07;;;6.80;43.60;;;;;;10264208;28;20231;-70
2020/12/08 17:54:30;;;;;;;5.70;5.07;;;6.90;43.60;;;;;;10282200;28;20234;-70
2020/12/08 17:59:38;;;;;;;6.23;5.63;;;6.90;43.70;;;;;;10287172;28;20314;-70
2020/12/08 18:04:41;;;;;;;5.40;4.90;;;6.90;43.40;;;;;;10288309;28;20228;-70
2020/12/08 18:09:44;;;;;;;5.53;5.03;;;6.90;43.50;;;;;;10301700;28;20254;-70
2020/12/08 18:14:46;;;;;;;6.73;5.60;;;6.90;43.50;;;;;;10292438;28;20227;-70
2020/12/08 18:19:49;;;;;;;6.57;5.97;;;6.90;43.40;;;;;;10300116;28;20235;-70
2020/12/08 18:24:52;;;;;;;7.00;6.07;;;6.90;43.30;;;;;;10295479;28;20246;-70
2020/12/08 18:29:54;;;;;;;6.97;6.33;;;6.90;43.40;;;;;;10296576;28;20596;-70
2020/12/08 18:35:14;;;;;;;7.87;7.07;;;7.00;43.40;;;;;;10300058;28;20218;-70
2020/12/08 18:40:17;;;;;;;8.63;7.73;;;7.00;43.40;;;;;;10296764;28;20231;-70
2020/12/08 18:45:20;;;;;;;8.17;7.37;;;7.00;43.30;;;;;;10290459;28;20231;-70
2020/12/08 18:50:23;;;;;;;9.07;8.17;;;7.00;43.30;;;;;;10293205;28;20235;-70
2020/12/08 18:55:26;;;;;;;9.47;8.57;;;7.00;43.20;;;;;;10290098;28;20230;-70
2020/12/08 19:00:30;;;;;;;10.80;9.80;;;7.00;43.40;;;;;;10288660;28;20238;-69
2020/12/08 19:05:33;;;;;;;12.40;11.10;;;7.00;43.20;;;;;;10289520;28;20716;-70
2020/12/08 19:10:36;;;;;;;11.57;10.40;;;7.00;43.20;;;;;;10298347;28;20703;-70
2020/12/08 19:15:38;;;;;;;11.97;10.73;;;7.00;43.10;;;;;;10288427;28;20227;-70
2020/12/08 19:20:41;;;;;;;12.53;11.00;;;7.00;43.40;;;;;;10300287;28;20227;-70
2020/12/08 19:25:44;;;;;;;13.30;11.63;;;7.00;43.30;;;;;;10295431;28;20530;-70
2020/12/08 19:30:46;;;;;;;12.47;11.17;;;7.00;43.40;;;;;;10282405;28;20228;-70
2020/12/08 19:35:49;;;;;;;11.47;10.37;;;7.00;43.40;;;;;;10290793;28;20736;-70
2020/12/08 19:40:51;;;;;;;12.33;11.03;;;7.00;43.30;;;;;;10283717;28;20227;-70
2020/12/08 19:45:54;;;;;;;10.97;9.93;;;7.00;43.30;;;;;;10286096;28;20232;-70
2020/12/08 19:50:57;;;;;;;12.27;11.07;;;7.00;43.40;;;;;;10283614;28;20231;-70
2020/12/08 19:55:59;;;;;;;11.77;10.57;;;7.00;43.50;;;;;;10301199;28;20234;-70
2020/12/08 20:01:02;;;;;;;11.80;10.70;;;7.00;43.60;;;;;;10291713;28;20228;-70
2020/12/08 20:06:05;;;;;;;12.17;10.93;;;7.00;43.50;;;;;;10296837;28;20330;-70
2020/12/08 20:11:07;;;;;;;13.50;12.17;;;7.00;43.40;;;;;;10296016;28;20321;-70
2020/12/08 20:16:14;;;;;;;11.63;10.43;;;7.00;43.50;;;;;;10296813;28;20573;-73
2020/12/08 20:21:19;;;;;;;14.27;12.00;;;7.00;43.40;;;;;;10297053;28;20235;-73
2020/12/08 20:26:21;;;;;;;11.83;10.63;;;7.00;43.30;;;;;;10293654;28;20235;-73
2020/12/08 20:31:23;;;;;;;11.27;10.17;;;7.00;43.40;;;;;;10309568;28;20725;-70
2020/12/08 20:36:29;;;;;;;11.70;10.50;;;7.00;43.40;;;;;;10290488;28;20241;-73
2020/12/08 20:41:32;;;;;;;10.53;9.43;;;7.00;43.20;;;;;;10302004;28;20242;-73
2020/12/08 20:46:36;;;;;;;11.13;10.10;;;7.00;43.30;;;;;;10291439;28;20784;-70
2020/12/08 20:51:40;;;;;;;11.50;10.40;;;7.00;43.20;;;;;;10284400;28;20227;-70
2020/12/08 20:56:49;;;;;;;11.47;10.27;;;6.90;43.10;;;;;;10303295;28;20237;-70
2020/12/08 21:01:52;;;;;;;10.83;9.70;;;6.90;43.00;;;;;;10307364;28;20222;-70
2020/12/08 21:06:55;;;;;;;12.20;10.43;;;6.90;43.60;;;;;;10304088;28;20238;-70
2020/12/08 21:11:58;;;;;;;12.00;10.80;;;6.90;43.50;;;;;;10306396;28;20234;-70
2020/12/08 21:17:00;;;;;;;11.70;10.37;;;6.80;43.40;;;;;;10291517;28;20227;-70
2020/12/08 21:22:03;;;;;;;11.20;10.10;;;6.80;43.20;;;;;;10273140;28;20227;-71
2020/12/08 21:27:06;;;;;;;10.97;9.83;;;6.70;43.20;;;;;;10280086;28;20241;-71
2020/12/08 21:32:08;;;;;;;11.50;10.30;;;6.70;43.20;;;;;;10305294;28;20231;-70
2020/12/08 21:37:11;;;;;;;12.30;11.03;;;6.70;43.20;;;;;;10297960;28;20245;-71
2020/12/08 21:42:13;;;;;;;12.53;11.33;;;6.60;43.30;;;;;;10293484;28;20718;-70
2020/12/08 21:47:15;;;;;;;12.07;10.80;;;6.60;43.40;;;;;;10293455;28;20227;-71
2020/12/08 21:52:19;;;;;;;12.93;10.43;;;6.60;43.50;;;;;;10293200;28;20243;-70
2020/12/08 21:57:21;;;;;;;12.37;10.80;;;6.50;43.60;;;;;;10291719;28;20230;-70
2020/12/08 22:02:23;;;;;;;13.77;10.33;;;6.50;43.80;;;;;;10289698;28;20235;-70
2020/12/08 22:07:26;;;;;;;12.20;11.00;;;6.50;43.90;;;;;;10266411;28;20231;-70
2020/12/08 22:12:28;;;;;;;12.47;10.07;;;6.50;43.90;;;;;;10280698;28;20234;-70
2020/12/08 22:17:31;;;;;;;10.97;9.87;;;6.50;44.00;;;;;;10288568;28;20223;-70
2020/12/08 22:22:36;;;;;;;11.57;9.60;;;6.50;43.90;;;;;;10301436;28;20792;-70
2020/12/08 22:27:39;;;;;;;12.23;11.03;;;6.50;43.90;;;;;;10295233;28;20219;-70
2020/12/08 22:32:46;;;;;;;10.20;9.20;;;6.60;44.00;;;;;;10308005;28;20791;-70
2020/12/08 22:37:50;;;;;;;10.63;9.63;;;6.60;44.00;;;;;;10299535;28;20227;-73
2020/12/08 22:42:53;;;;;;;10.13;9.13;;;6.60;44.00;;;;;;10296125;28;20222;-73
2020/12/08 22:47:56;;;;;;;9.63;8.63;;;6.60;44.00;;;;;;10314506;28;20235;-73
2020/12/08 22:52:59;;;;;;;10.00;9.00;;;6.60;44.70;;;;;;10321135;28;20317;-70
2020/12/08 22:58:01;;;;;;;9.10;8.27;;;6.60;44.00;;;;;;10304139;28;20234;-71
2020/12/08 23:03:04;;;;;;;10.73;7.80;;;6.60;44.00;;;;;;10301910;28;20232;-71
2020/12/08 23:08:07;;;;;;;9.23;8.33;;;6.60;43.90;;;;;;10295711;28;20701;-70
2020/12/08 23:13:09;;;;;;;9.23;8.20;;;6.60;44.00;;;;;;10299399;28;20688;-70
2020/12/08 23:18:12;;;;;;;11.33;8.40;;;6.60;43.80;;;;;;10296097;28;20264;-70
2020/12/08 23:23:15;;;;;;;10.00;8.97;;;6.60;43.80;;;;;;10297269;28;20231;-70
2020/12/08 23:28:17;;;;;;;10.90;9.63;;;6.60;43.80;;;;;;10307343;28;20250;-70
2020/12/08 23:33:20;;;;;;;10.83;9.73;;;6.50;43.70;;;;;;10312474;28;20617;-70
2020/12/08 23:38:23;;;;;;;11.40;9.97;;;6.40;43.80;;;;;;10297550;28;20243;-70
2020/12/08 23:43:25;;;;;;;11.57;10.37;;;6.30;43.80;;;;;;10295943;28;20758;-70
2020/12/08 23:48:27;;;;;;;11.73;9.30;;;6.30;43.80;;;;;;10306779;28;20257;-73
2020/12/08 23:53:30;;;;;;;11.63;10.03;;;6.20;43.80;;;;;;10318998;28;20237;-70
2020/12/08 23:58:32;;;;;;;10.77;9.67;;;6.20;44.10;;;;;;10302041;28;20596;-70
